createdAt,value
2022-11-04T00:01:53.186Z,95805.31
2022-11-04T00:04:22.104Z,95795.81
2022-11-04T00:06:49.333Z,95789.78
2022-11-04T00:09:21.648Z,95796.03
2022-11-04T00:12:07.807Z,95788.53
2022-11-04T00:14:34.938Z,95788.84
2022-11-04T00:17:20.311Z,95785.03
2022-11-04T00:20:07.174Z,95791.25
2022-11-04T00:22:52.921Z,95794.63
2022-11-04T00:25:38.079Z,95786.19
2022-11-04T00:28:31.450Z,95790.06
2022-11-04T00:31:21.938Z,95767.31
2022-11-04T00:33:49.797Z,95772.06
2022-11-04T00:36:16.236Z,95772.59
2022-11-04T00:38:42.618Z,95767.13
2022-11-04T00:41:25.874Z,95772.53
2022-11-04T00:43:57.996Z,95765.69
2022-11-04T00:46:24.893Z,95773.09
2022-11-04T00:48:51.216Z,95774.66
2022-11-04T00:51:18.076Z,95775.88
2022-11-04T00:53:44.422Z,95774.25
2022-11-04T00:56:10.785Z,95771.75
2022-11-04T00:58:37.163Z,95768.94
2022-11-04T01:01:12.133Z,95781.25
2022-11-04T01:03:39.210Z,95772.41
2022-11-04T01:06:06.019Z,95781.22
2022-11-04T01:08:32.837Z,95770.38
2022-11-04T01:11:06.414Z,95770.28
2022-11-04T01:13:33.257Z,95771.28
2022-11-04T01:16:05.833Z,95772.97
2022-11-04T01:18:32.522Z,95775.31
2022-11-04T01:21:03.711Z,95775.25
2022-11-04T01:23:30.278Z,95779.59
2022-11-04T01:25:56.825Z,95789.81
2022-11-04T01:28:23.309Z,95785.91
2022-11-04T01:30:49.637Z,95788.38
2022-11-04T01:33:15.994Z,95798.09
2022-11-04T01:35:42.358Z,95803.25
2022-11-04T01:38:09.015Z,95809.69
2022-11-04T01:40:40.132Z,95822.00
2022-11-04T01:43:16.436Z,95810.13
2022-11-04T01:45:47.065Z,95813.09
2022-11-04T01:48:22.164Z,95792.16
2022-11-04T01:50:50.536Z,95801.00
2022-11-04T01:53:21.855Z,95790.59
2022-11-04T01:55:52.455Z,95782.09
2022-11-04T01:58:22.864Z,95784.31
2022-11-04T02:00:49.476Z,95781.00
2022-11-04T02:03:20.479Z,95758.53
2022-11-04T02:05:47.767Z,95753.69
2022-11-04T02:08:15.920Z,95752.34
2022-11-04T02:10:57.833Z,95755.94
2022-11-04T02:13:26.279Z,95746.56
2022-11-04T02:16:01.641Z,95744.16
2022-11-04T02:18:55.643Z,95752.56
2022-11-04T02:21:53.532Z,95742.63
2022-11-04T02:24:38.441Z,95746.56
2022-11-04T02:27:44.522Z,95750.03
2022-11-04T02:30:16.637Z,95745.47
2022-11-04T02:33:01.628Z,95751.50
2022-11-04T02:35:41.225Z,95739.22
2022-11-04T02:38:30.710Z,95742.44
2022-11-04T02:41:20.382Z,95745.94
2022-11-04T02:44:10.077Z,95732.75
2022-11-04T02:46:52.013Z,95741.97
2022-11-04T02:49:30.767Z,95739.63
2022-11-04T02:52:06.575Z,95735.50
2022-11-04T02:54:45.989Z,95734.69
2022-11-04T02:57:18.144Z,95740.38
2022-11-04T03:00:09.008Z,95735.88
2022-11-04T03:02:46.520Z,95730.25
2022-11-04T03:05:16.360Z,95737.66
2022-11-04T03:07:45.037Z,95729.44
2022-11-04T03:10:17.543Z,95724.94
2022-11-04T03:12:54.110Z,95714.34
2022-11-04T03:15:26.847Z,95714.16
2022-11-04T03:18:35.668Z,95715.81
2022-11-04T03:21:05.896Z,95720.75
2022-11-04T03:23:32.682Z,95710.16
2022-11-04T03:26:10.539Z,95713.56
2022-11-04T03:29:00.088Z,95712.88
2022-11-04T03:31:40.047Z,95714.66
2022-11-04T03:34:06.759Z,95719.53
2022-11-04T03:36:33.141Z,95724.19
2022-11-04T03:38:59.500Z,95732.59
2022-11-04T03:41:36.782Z,95742.34
2022-11-04T03:44:03.676Z,95747.09
2022-11-04T03:46:30.613Z,95746.19
2022-11-04T03:48:58.896Z,95756.38
2022-11-04T03:51:25.214Z,95747.41
2022-11-04T03:53:51.834Z,95758.63
2022-11-04T03:56:47.355Z,95748.44
2022-11-04T03:59:32.127Z,95750.22
2022-11-04T04:02:09.194Z,95745.50
2022-11-04T04:04:40.342Z,95737.91
2022-11-04T04:07:29.995Z,95735.75
2022-11-04T04:10:03.835Z,95729.69
2022-11-04T04:12:37.586Z,95721.25
2022-11-04T04:15:15.990Z,95716.88
2022-11-04T04:17:49.174Z,95719.94
2022-11-04T04:20:20.645Z,95716.97
2022-11-04T04:22:52.698Z,95704.91
2022-11-04T04:25:40.013Z,95700.97
2022-11-04T04:28:07.431Z,95695.81
2022-11-04T04:30:35.190Z,95678.22
2022-11-04T04:33:08.138Z,95662.34
2022-11-04T04:35:46.670Z,95662.94
2022-11-04T04:38:40.451Z,95668.00
2022-11-04T04:41:46.084Z,95673.31
2022-11-04T04:44:39.712Z,95684.22
2022-11-04T04:47:07.867Z,95706.16
2022-11-04T04:49:37.145Z,95695.00
2022-11-04T04:52:06.954Z,95697.75
2022-11-04T04:54:33.335Z,95680.09
2022-11-04T04:56:59.662Z,95680.16
2022-11-04T04:59:26.035Z,95694.94
2022-11-04T05:01:52.479Z,95687.53
2022-11-04T05:04:18.911Z,95685.78
2022-11-04T05:06:45.235Z,95681.19
2022-11-04T05:09:11.595Z,95674.00
2022-11-04T05:11:37.905Z,95659.28
2022-11-04T05:14:04.267Z,95656.53
2022-11-04T05:16:30.585Z,95648.75
2022-11-04T05:18:57.211Z,95643.22
2022-11-04T05:21:23.801Z,95632.16
2022-11-04T05:23:50.129Z,95636.03
2022-11-04T05:26:16.797Z,95636.56
2022-11-04T05:28:43.453Z,95636.16
2022-11-04T05:31:09.792Z,95642.50
2022-11-04T05:33:36.129Z,95640.97
2022-11-04T05:36:20.565Z,95636.97
2022-11-04T05:38:51.220Z,95643.59
2022-11-04T05:41:27.139Z,95639.03
2022-11-04T05:43:58.618Z,95640.91
2022-11-04T05:46:26.114Z,95630.75
2022-11-04T05:48:52.915Z,95640.16
2022-11-04T05:51:22.195Z,95632.13
2022-11-04T05:53:48.889Z,95633.13
2022-11-04T05:56:15.821Z,95639.00
2022-11-04T05:58:42.323Z,95641.84
2022-11-04T06:01:30.629Z,95638.38
2022-11-04T06:03:58.742Z,95639.75
2022-11-04T06:06:27.928Z,95644.66
2022-11-04T06:08:54.630Z,95655.31
2022-11-04T06:11:22.220Z,95656.50
2022-11-04T06:13:49.106Z,95661.78
2022-11-04T06:16:15.662Z,95667.69
2022-11-04T06:18:41.981Z,95673.53
2022-11-04T06:21:30.083Z,95682.59
2022-11-04T06:23:58.408Z,95683.19
2022-11-04T06:26:28.269Z,95681.91
2022-11-04T06:28:55.317Z,95682.38
2022-11-04T06:31:21.688Z,95677.69
2022-11-04T06:33:48.193Z,95673.81
2022-11-04T06:36:16.157Z,95660.50
2022-11-04T06:38:43.369Z,95665.53
2022-11-04T06:41:16.778Z,95659.53
2022-11-04T06:43:43.503Z,95650.88
2022-11-04T06:46:28.671Z,95665.38
2022-11-04T06:48:56.663Z,95652.63
2022-11-04T06:51:23.997Z,95654.53
2022-11-04T06:53:50.494Z,95654.06
2022-11-04T06:56:16.954Z,95649.19
2022-11-04T06:58:43.445Z,95640.56
2022-11-04T07:01:15.877Z,95646.09
2022-11-04T07:03:44.292Z,95639.63
2022-11-04T07:06:11.399Z,95638.16
2022-11-04T07:08:37.806Z,95639.03
2022-11-04T07:11:04.200Z,95642.63
2022-11-04T07:13:30.643Z,95644.25
2022-11-04T07:15:57.180Z,95639.13
2022-11-04T07:18:23.661Z,95634.31
2022-11-04T07:20:49.968Z,95628.34
2022-11-04T07:23:16.361Z,95622.41
2022-11-04T07:25:42.980Z,95626.09
2022-11-04T07:28:09.902Z,95613.44
2022-11-04T07:30:36.498Z,95609.06
2022-11-04T07:33:03.055Z,95598.66
2022-11-04T07:35:29.399Z,95593.53
2022-11-04T07:37:55.708Z,95588.28
2022-11-04T07:40:22.216Z,95592.22
2022-11-04T07:42:48.531Z,95582.53
2022-11-04T07:45:14.974Z,95583.66
2022-11-04T07:47:41.302Z,95586.78
2022-11-04T07:50:10.922Z,95585.06
2022-11-04T07:52:38.180Z,95584.16
2022-11-04T07:55:05.037Z,95577.94
2022-11-04T07:57:31.373Z,95578.06
2022-11-04T07:59:57.758Z,95581.81
2022-11-04T08:02:28.636Z,95588.44
2022-11-04T08:04:57.499Z,95580.88
2022-11-04T08:07:24.316Z,95590.38
2022-11-04T08:09:50.686Z,95597.28
2022-11-04T08:12:17.074Z,95602.38
2022-11-04T08:14:43.391Z,95602.63
2022-11-04T08:17:10.054Z,95602.16
2022-11-04T08:19:36.401Z,95609.91
2022-11-04T08:22:02.733Z,95609.84
2022-11-04T08:24:29.121Z,95608.78
2022-11-04T08:26:55.649Z,95626.50
2022-11-04T08:29:22.284Z,95626.41
2022-11-04T08:31:48.656Z,95637.38
2022-11-04T08:34:17.308Z,95638.63
2022-11-04T08:36:44.932Z,95644.94
2022-11-04T08:39:12.745Z,95642.81
2022-11-04T08:41:42.207Z,95635.41
2022-11-04T08:44:08.820Z,95631.00
2022-11-04T08:46:38.351Z,95629.06
2022-11-04T08:49:09.707Z,95622.69
2022-11-04T08:51:40.834Z,95631.03
2022-11-04T08:54:07.658Z,95634.31
2022-11-04T08:56:36.403Z,95627.63
2022-11-04T08:59:04.178Z,95624.97
2022-11-04T09:01:36.174Z,95617.44
2022-11-04T09:04:03.657Z,95614.81
2022-11-04T09:06:34.414Z,95611.13
2022-11-04T09:09:04.358Z,95607.53
2022-11-04T09:11:32.973Z,95606.38
2022-11-04T09:14:01.136Z,95601.06
2022-11-04T09:16:29.709Z,95618.06
2022-11-04T09:18:57.681Z,95611.28
2022-11-04T09:21:25.003Z,95603.84
2022-11-04T09:23:51.369Z,95596.16
2022-11-04T09:26:18.242Z,95589.88
2022-11-04T09:28:44.999Z,95603.16
2022-11-04T09:31:17.534Z,95593.81
2022-11-04T09:33:44.342Z,95591.88
2022-11-04T09:36:11.755Z,95601.75
2022-11-04T09:38:40.305Z,95607.69
2022-11-04T09:41:21.293Z,95601.13
2022-11-04T09:44:19.520Z,95597.53
2022-11-04T09:46:49.265Z,95597.44
2022-11-04T09:49:18.562Z,95604.44
2022-11-04T09:51:54.183Z,95593.81
2022-11-04T09:54:36.480Z,95604.16
2022-11-04T09:57:04.174Z,95602.03
2022-11-04T09:59:34.054Z,95603.50
2022-11-04T10:02:29.534Z,95608.03
2022-11-04T10:05:09.217Z,95607.59
2022-11-04T10:07:46.447Z,95593.16
2022-11-04T10:10:35.921Z,95594.78
2022-11-04T10:13:14.462Z,95594.28
2022-11-04T10:15:56.069Z,95596.03
2022-11-04T10:18:44.491Z,95596.38
2022-11-04T10:21:32.148Z,95589.91
2022-11-04T10:24:17.364Z,95595.50
2022-11-04T10:27:00.769Z,95597.56
2022-11-04T10:29:37.542Z,95590.50
2022-11-04T10:32:12.515Z,95595.56
2022-11-04T10:34:46.153Z,95584.88
2022-11-04T10:37:13.281Z,95579.31
2022-11-04T10:39:45.178Z,95583.28
2022-11-04T10:42:16.185Z,95575.09
2022-11-04T10:44:43.982Z,95573.38
2022-11-04T10:47:31.860Z,95569.78
2022-11-04T10:50:26.969Z,95566.72
2022-11-04T10:52:47.226Z,95561.97
2022-11-04T10:55:29.727Z,95560.84
2022-11-04T10:57:59.649Z,95561.88
2022-11-04T11:00:34.887Z,95562.88
2022-11-04T11:03:01.351Z,95573.75
2022-11-04T11:05:29.082Z,95567.66
2022-11-04T11:07:58.172Z,95557.34
2022-11-04T11:10:30.743Z,95558.75
2022-11-04T11:13:02.051Z,95559.88
2022-11-04T11:15:32.676Z,95556.56
2022-11-04T11:18:08.181Z,95550.19
2022-11-04T11:20:37.695Z,95547.94
2022-11-04T11:23:10.203Z,95551.94
2022-11-04T11:25:45.063Z,95544.97
2022-11-04T11:28:20.597Z,95551.25
2022-11-04T11:30:47.011Z,95549.66
2022-11-04T11:33:50.752Z,95542.03
2022-11-04T11:36:24.711Z,95532.34
2022-11-04T11:38:56.062Z,95530.94
2022-11-04T11:41:28.766Z,95522.06
2022-11-04T11:43:56.206Z,95520.50
2022-11-04T11:46:30.220Z,95527.94
2022-11-04T11:49:02.212Z,95525.88
2022-11-04T11:51:35.738Z,95533.00
2022-11-04T11:54:33.474Z,95532.22
2022-11-04T11:57:25.016Z,95531.56
2022-11-04T12:02:56.517Z,95541.56
2022-11-04T12:09:15.673Z,95534.97
2022-11-04T12:12:06.422Z,95533.00
2022-11-04T12:14:55.393Z,95534.38
2022-11-04T12:17:21.731Z,95533.25
2022-11-04T12:20:19.160Z,95526.56
2022-11-04T12:23:02.945Z,95523.41
2022-11-04T12:26:02.387Z,95532.81
2022-11-04T12:28:36.428Z,95540.22
2022-11-04T12:31:27.571Z,95535.66
2022-11-04T12:34:25.301Z,95525.84
2022-11-04T12:36:57.565Z,95527.13
2022-11-04T12:39:44.482Z,95530.22
2022-11-04T12:42:29.682Z,95533.94
2022-11-04T12:45:09.902Z,95533.38
2022-11-04T12:47:47.511Z,95532.69
2022-11-04T12:50:23.026Z,95535.41
2022-11-04T12:53:18.797Z,95532.50
2022-11-04T12:55:57.320Z,95541.41
2022-11-04T12:58:29.742Z,95540.81
2022-11-04T13:01:15.673Z,95533.44
2022-11-04T13:04:16.942Z,95545.69
2022-11-04T13:06:49.174Z,95541.22
2022-11-04T13:09:25.601Z,95543.06
2022-11-04T13:12:12.209Z,95539.25
2022-11-04T13:14:49.413Z,95551.25
2022-11-04T13:17:19.963Z,95545.91
2022-11-04T13:19:51.704Z,95547.56
2022-11-04T13:22:23.468Z,95546.59
2022-11-04T13:24:59.435Z,95540.16
2022-11-04T13:27:33.287Z,95542.16
2022-11-04T13:30:22.158Z,95544.47
2022-11-04T13:33:13.295Z,95539.66
2022-11-04T13:35:59.654Z,95544.47
2022-11-04T13:38:33.658Z,95545.00
2022-11-04T13:41:25.554Z,95550.84
2022-11-04T13:43:56.061Z,95557.97
2022-11-04T13:46:23.673Z,95553.31
2022-11-04T13:49:10.537Z,95555.25
2022-11-04T13:51:47.397Z,95556.50
2022-11-04T13:54:31.922Z,95557.88
2022-11-04T13:57:21.554Z,95557.75
2022-11-04T14:00:16.123Z,95565.56
2022-11-04T14:02:52.149Z,95561.50
2022-11-04T14:05:28.082Z,95564.31
2022-11-04T14:08:03.088Z,95564.69
2022-11-04T14:10:50.802Z,95559.75
2022-11-04T14:13:26.466Z,95560.06
2022-11-04T14:16:32.388Z,95557.59
2022-11-04T14:19:42.164Z,95568.31
2022-11-04T14:22:15.101Z,95554.31
2022-11-04T14:24:41.551Z,95551.94
2022-11-04T14:27:25.285Z,95560.25
2022-11-04T14:29:53.270Z,95559.94
2022-11-04T14:32:27.140Z,95576.78
2022-11-04T14:35:03.913Z,95565.25
2022-11-04T14:37:35.431Z,95566.97
2022-11-04T14:40:07.103Z,95577.31
2022-11-04T14:42:55.608Z,95564.69
2022-11-04T14:45:28.562Z,95572.50
2022-11-04T14:48:15.845Z,95567.50
2022-11-04T14:50:48.562Z,95572.44
2022-11-04T14:53:23.551Z,95579.53
2022-11-04T14:56:07.122Z,95579.34
2022-11-04T14:58:33.632Z,95583.16
2022-11-04T15:01:02.646Z,95571.97
2022-11-04T15:06:40.342Z,95584.50
2022-11-04T15:09:21.867Z,95583.69
2022-11-04T15:12:06.618Z,95597.53
2022-11-04T15:14:37.018Z,95588.81
2022-11-04T15:17:03.840Z,95587.25
2022-11-04T15:19:33.029Z,95590.69
2022-11-04T15:22:06.264Z,95593.16
2022-11-04T15:24:34.519Z,95592.88
2022-11-04T15:27:06.671Z,95591.06
2022-11-04T15:29:33.314Z,95589.59
2022-11-04T15:32:05.342Z,95595.03
2022-11-04T15:34:33.385Z,95605.78
2022-11-04T15:37:03.974Z,95608.59
2022-11-04T15:39:34.589Z,95613.75
2022-11-04T15:42:23.404Z,95636.16
2022-11-04T15:44:55.437Z,95644.97
2022-11-04T15:47:25.080Z,95648.13
2022-11-04T15:49:53.559Z,95655.66
2022-11-04T15:52:22.563Z,95655.16
2022-11-04T15:54:54.311Z,95661.97
2022-11-04T15:57:34.922Z,95661.66
2022-11-04T16:00:16.531Z,95669.63
2022-11-04T16:02:58.179Z,95666.53
2022-11-04T16:05:29.065Z,95664.09
2022-11-04T16:08:13.739Z,95669.81
2022-11-04T16:10:40.377Z,95676.44
2022-11-04T16:13:18.710Z,95670.09
2022-11-04T16:15:58.755Z,95667.31
2022-11-04T16:18:34.227Z,95675.84
2022-11-04T16:21:06.141Z,95677.97
2022-11-04T16:23:42.729Z,95682.41
2022-11-04T16:26:09.165Z,95687.97
2022-11-04T16:28:38.294Z,95690.91
2022-11-04T16:31:22.946Z,95689.56
2022-11-04T16:33:50.084Z,95693.84
2022-11-04T16:36:23.651Z,95690.72
2022-11-04T16:38:57.612Z,95698.19
2022-11-04T16:41:26.052Z,95704.41
2022-11-04T16:43:53.434Z,95706.72
2022-11-04T16:46:20.765Z,95719.22
2022-11-04T16:48:47.307Z,95713.94
2022-11-04T16:51:23.511Z,95725.47
2022-11-04T16:53:52.416Z,95723.78
2022-11-04T16:56:22.611Z,95729.56
2022-11-04T16:58:49.057Z,95738.91
2022-11-04T17:01:15.720Z,95747.13
2022-11-04T17:03:43.178Z,95751.69
2022-11-04T17:06:15.322Z,95755.00
2022-11-04T17:08:42.488Z,95755.31
2022-11-04T17:11:10.472Z,95762.88
2022-11-04T17:13:37.672Z,95765.13
2022-11-04T17:16:11.817Z,95764.31
2022-11-04T17:18:38.275Z,95773.00
2022-11-04T17:21:14.666Z,95773.84
2022-11-04T17:23:41.602Z,95782.69
2022-11-04T17:26:09.092Z,95779.41
2022-11-04T17:28:35.673Z,95788.59
2022-11-04T17:31:02.589Z,95791.59
2022-11-04T17:33:29.253Z,95800.56
2022-11-04T17:35:56.190Z,95805.97
2022-11-04T17:38:22.593Z,95812.50
2022-11-04T17:41:07.539Z,95801.41
2022-11-04T17:43:52.436Z,95809.78
2022-11-04T17:46:39.421Z,95819.91
2022-11-04T17:49:11.665Z,95831.41
2022-11-04T17:52:03.509Z,95836.31
2022-11-04T17:54:30.416Z,95829.56
2022-11-04T17:56:58.100Z,95831.81
2022-11-04T17:59:24.916Z,95837.91
2022-11-04T18:01:51.426Z,95842.19
2022-11-04T18:04:21.794Z,95852.81
2022-11-04T18:06:51.687Z,95864.72
2022-11-04T18:09:18.465Z,95863.44
2022-11-04T18:12:04.445Z,95863.38
2022-11-04T18:14:31.557Z,95875.63
2022-11-04T18:16:58.963Z,95874.06
2022-11-04T18:19:26.312Z,95879.75
2022-11-04T18:21:52.896Z,95885.09
2022-11-04T18:24:19.750Z,95884.78
2022-11-04T18:26:46.405Z,95891.91
2022-11-04T18:29:12.933Z,95905.06
2022-11-04T18:31:44.654Z,95902.44
2022-11-04T18:34:17.595Z,95907.63
2022-11-04T18:36:44.087Z,95915.56
2022-11-04T18:39:13.150Z,95914.56
2022-11-04T18:41:40.847Z,95925.25
2022-11-04T18:44:08.616Z,95923.09
2022-11-04T18:46:35.355Z,95924.63
2022-11-04T18:49:04.855Z,95930.28
2022-11-04T18:51:31.238Z,95942.00
2022-11-04T18:54:07.812Z,95943.78
2022-11-04T18:56:34.719Z,95951.25
2022-11-04T18:59:01.287Z,95945.06
2022-11-04T19:01:30.489Z,95951.66
2022-11-04T19:03:58.686Z,95950.53
2022-11-04T19:06:31.214Z,95955.69
2022-11-04T19:09:04.965Z,95968.19
2022-11-04T19:11:41.124Z,95972.44
2022-11-04T19:14:11.276Z,95973.56
2022-11-04T19:16:39.155Z,95975.06
2022-11-04T19:19:08.117Z,95979.75
2022-11-04T19:21:35.149Z,95981.63
2022-11-04T19:24:02.011Z,95983.38
2022-11-04T19:26:33.577Z,95982.94
2022-11-04T19:29:03.092Z,95986.91
2022-11-04T19:31:30.786Z,95996.59
2022-11-04T19:33:59.083Z,95997.56
2022-11-04T19:36:26.055Z,96003.47
2022-11-04T19:38:54.322Z,96005.66
2022-11-04T19:41:40.421Z,96003.63
2022-11-04T19:44:10.186Z,96018.88
2022-11-04T19:46:37.578Z,96015.34
2022-11-04T19:49:04.683Z,96024.16
2022-11-04T19:51:32.251Z,96032.53
2022-11-04T19:53:59.208Z,96034.88
2022-11-04T19:56:26.144Z,96046.28
2022-11-04T19:58:52.594Z,96039.44
2022-11-04T20:01:19.477Z,96053.06
2022-11-04T20:03:45.929Z,96050.00
2022-11-04T20:06:14.771Z,96056.47
2022-11-04T20:08:44.095Z,96064.59
2022-11-04T20:11:11.149Z,96062.78
2022-11-04T20:13:49.934Z,96068.59
2022-11-04T20:16:28.664Z,96065.00
2022-11-04T20:18:59.686Z,96072.03
2022-11-04T20:21:28.827Z,96068.31
2022-11-04T20:24:00.819Z,96075.03
2022-11-04T20:26:28.964Z,96070.91
2022-11-04T20:28:58.072Z,96080.28
2022-11-04T20:31:27.760Z,96079.72
2022-11-04T20:33:55.753Z,96083.31
2022-11-04T20:36:26.905Z,96083.44
2022-11-04T20:39:01.363Z,96090.75
2022-11-04T20:41:28.619Z,96101.22
2022-11-04T20:43:55.826Z,96106.16
2022-11-04T20:46:30.720Z,96112.34
2022-11-04T20:48:58.083Z,96114.41
2022-11-04T20:51:30.086Z,96117.44
2022-11-04T20:54:00.570Z,96121.84
2022-11-04T20:56:33.751Z,96129.28
2022-11-04T20:59:01.181Z,96138.94
2022-11-04T21:01:31.592Z,96130.38
2022-11-04T21:04:08.743Z,96133.72
2022-11-04T21:06:39.802Z,96138.22
2022-11-04T21:09:08.212Z,96132.84
2022-11-04T21:11:37.439Z,96151.69
2022-11-04T21:14:04.259Z,96144.13
2022-11-04T21:16:32.736Z,96150.81
2022-11-04T21:18:59.681Z,96148.22
2022-11-04T21:21:29.735Z,96151.06
2022-11-04T21:23:57.895Z,96149.19
2022-11-04T21:26:26.966Z,96160.38
2022-11-04T21:28:55.063Z,96165.88
2022-11-04T21:31:22.170Z,96165.91
2022-11-04T21:33:48.522Z,96165.16
2022-11-04T21:36:15.107Z,96170.13
2022-11-04T21:38:41.664Z,96175.94
2022-11-04T21:41:14.471Z,96183.25
2022-11-04T21:43:41.308Z,96187.75
2022-11-04T21:46:10.049Z,96187.34
2022-11-04T21:48:37.500Z,96190.66
2022-11-04T21:51:07.135Z,96193.25
2022-11-04T21:53:34.133Z,96201.34
2022-11-04T21:56:22.096Z,96195.59
2022-11-04T21:58:48.720Z,96197.41
2022-11-04T22:01:18.633Z,96197.53
2022-11-04T22:03:51.594Z,96207.31
2022-11-04T22:06:30.558Z,96206.34
2022-11-04T22:09:00.243Z,96207.13
2022-11-04T22:11:28.757Z,96216.22
2022-11-04T22:13:58.268Z,96218.97
2022-11-04T22:16:27.912Z,96224.31
2022-11-04T22:19:06.840Z,96220.59
2022-11-04T22:21:33.872Z,96220.19
2022-11-04T22:24:08.246Z,96220.31
2022-11-04T22:26:34.699Z,96223.09
2022-11-04T22:29:01.060Z,96218.59
2022-11-04T22:31:36.483Z,96213.22
2022-11-04T22:34:04.448Z,96215.19
2022-11-04T22:36:32.353Z,96225.66
2022-11-04T22:38:59.457Z,96225.59
2022-11-04T22:41:31.488Z,96223.63
2022-11-04T22:43:58.589Z,96227.25
2022-11-04T22:46:27.813Z,96224.78
2022-11-04T22:48:54.317Z,96225.44
2022-11-04T22:51:21.039Z,96230.03
2022-11-04T22:53:55.528Z,96228.28
2022-11-04T22:56:24.397Z,96242.81
2022-11-04T22:58:51.963Z,96237.31
2022-11-04T23:01:18.575Z,96238.16
2022-11-04T23:03:45.116Z,96242.13
2022-11-04T23:06:11.570Z,96255.19
2022-11-04T23:08:40.007Z,96249.41
2022-11-04T23:11:28.441Z,96256.22
2022-11-04T23:14:20.444Z,96255.28
2022-11-04T23:17:08.213Z,96265.97
2022-11-04T23:19:34.738Z,96267.69
2022-11-04T23:22:19.582Z,96261.28
2022-11-04T23:25:04.304Z,96263.41
2022-11-04T23:27:49.764Z,96263.91
2022-11-04T23:30:22.683Z,96271.59
2022-11-04T23:32:50.816Z,96269.81
2022-11-04T23:35:36.635Z,96271.19
2022-11-04T23:38:03.706Z,96273.03
2022-11-04T23:40:31.623Z,96278.22
2022-11-04T23:42:58.158Z,96279.31
2022-11-04T23:45:43.322Z,96281.47
2022-11-04T23:48:31.633Z,96284.66
2022-11-04T23:51:18.372Z,96289.09
2022-11-04T23:54:03.908Z,96285.13
2022-11-04T23:56:49.685Z,96292.09
2022-11-04T23:59:36.577Z,96288.19
